Time;durP1;ratioP1;P1;durP2;ratioP2;P2;SDS_P1;SDS_P2;PMS_P1;PMS_P2;Temp;Humidity;BMP_temperature;BMP_pressure;BME280_temperature;BME280_humidity;BME280_pressure;Samples;Min_cycle;Max_cycle;Signal;HPM_P1;HPM_P2
2022/05/27 00:00:50;;;;;;;3.08;1.60;;;;;;;16.61;83.85;100741.72;4988099;28;20034;-69
2022/05/27 00:03:16;;;;;;;4.15;1.52;;;;;;;16.57;83.54;100745.47;4998527;28;20036;-69
2022/05/27 00:05:41;;;;;;;2.17;1.45;;;;;;;16.51;84.01;100734.13;5003517;28;20357;-69
2022/05/27 00:08:08;;;;;;;3.15;1.75;;;;;;;16.45;83.95;100723.66;4999964;28;20030;-69
2022/05/27 00:10:34;;;;;;;2.08;1.40;;;;;;;16.40;84.55;100721.19;5009430;28;20041;-69
2022/05/27 00:12:59;;;;;;;4.20;1.80;;;;;;;16.38;84.86;100717.69;5010144;28;20473;-68
2022/05/27 00:15:25;;;;;;;3.10;1.70;;;;;;;16.34;84.73;100713.38;5010419;28;20474;-68
2022/05/27 00:17:50;;;;;;;3.47;2.20;;;;;;;16.32;84.91;100709.03;5009448;28;20517;-68
2022/05/27 00:20:15;;;;;;;2.55;1.48;;;;;;;16.30;84.99;100722.53;5010270;28;20052;-68
2022/05/27 00:22:41;;;;;;;4.07;2.20;;;;;;;16.23;86.00;100721.03;5010597;28;20022;-68
2022/05/27 00:25:07;;;;;;;4.07;2.42;;;;;;;16.11;86.64;100712.69;4992489;28;20061;-69
2022/05/27 00:27:33;;;;;;;2.90;2.05;;;;;;;16.05;87.14;100711.13;4992859;28;20018;-69
2022/05/27 00:29:58;;;;;;;3.88;2.40;;;;;;;15.92;87.86;100714.41;5010361;28;20032;-69
2022/05/27 00:32:24;;;;;;;4.25;1.85;;;;;;;15.81;87.76;100706.84;4993008;28;20087;-69
2022/05/27 00:34:49;;;;;;;3.58;2.60;;;;;;;15.90;89.03;100727.03;5010653;28;20125;-69
2022/05/27 00:37:15;;;;;;;4.40;2.08;;;;;;;15.86;88.57;100710.19;4992517;28;20037;-69
2022/05/27 00:39:40;;;;;;;4.90;2.72;;;;;;;15.78;88.71;100710.50;4990938;28;20470;-69
2022/05/27 00:42:06;;;;;;;9.25;2.58;;;;;;;15.87;89.30;100713.72;4990381;28;20109;-69
2022/05/27 00:44:32;;;;;;;4.13;2.28;;;;;;;15.82;89.78;100717.50;4991289;28;20026;-69
2022/05/27 00:47:04;;;;;;;3.15;1.83;;;;;;;15.83;88.82;100719.22;4990467;28;20068;-69
2022/05/27 00:49:32;;;;;;;3.28;1.58;;;;;;;15.83;89.24;100724.59;4991080;28;20057;-69
2022/05/27 00:52:04;;;;;;;4.75;2.47;;;;;;;15.78;89.10;100710.50;4990737;28;20089;-69
2022/05/27 00:54:31;;;;;;;2.60;2.03;;;;;;;15.77;90.01;100715.94;4991025;28;20026;-69
2022/05/27 00:57:03;;;;;;;2.40;1.83;;;;;;;15.77;89.54;100714.13;5004427;28;20041;-69
2022/05/27 00:59:59;;;;;;;3.78;2.08;;;;;;;15.77;90.15;100719.50;5013952;28;20111;-69
2022/05/27 01:02:25;;;;;;;3.50;2.10;;;;;;;15.72;90.82;100715.25;5013812;28;20421;-69
2022/05/27 01:04:50;;;;;;;3.67;1.98;;;;;;;15.67;90.90;100722.63;5013701;28;20060;-69
2022/05/27 01:07:16;;;;;;;4.25;2.03;;;;;;;15.65;90.72;100714.66;4995410;28;20084;-69
2022/05/27 01:09:47;;;;;;;5.28;2.30;;;;;;;15.57;91.67;100722.13;4994109;28;20029;-69
2022/05/27 01:12:21;;;;;;;5.25;2.42;;;;;;;15.58;90.93;100712.28;4992574;28;20064;-69
2022/05/27 01:15:13;;;;;;;3.15;1.80;;;;;;;15.59;91.69;100709.56;4993911;28;20026;-69
2022/05/27 01:18:12;;;;;;;4.75;2.00;;;;;;;15.57;91.66;100706.06;5005486;28;20072;-69
2022/05/27 01:21:02;;;;;;;4.32;2.17;;;;;;;15.62;91.02;100709.41;5013379;28;20037;-69
2022/05/27 01:24:02;;;;;;;3.72;2.10;;;;;;;15.59;91.63;100704.19;4995693;28;20050;-69
2022/05/27 01:26:57;;;;;;;3.97;2.15;;;;;;;15.60;91.85;100705.06;5014153;28;20025;-69
2022/05/27 01:29:50;;;;;;;3.30;2.13;;;;;;;15.58;91.08;100702.41;4967507;28;20038;-70
2022/05/27 01:32:36;;;;;;;5.40;2.20;;;;;;;15.52;91.09;100705.38;5013354;28;20105;-69
2022/05/27 01:35:09;;;;;;;5.90;2.05;;;;;;;15.46;91.88;100700.28;5012144;28;20403;-70
2022/05/27 01:37:58;;;;;;;3.50;2.13;;;;;;;15.41;92.01;100710.31;4993437;28;20512;-70
2022/05/27 01:40:49;;;;;;;2.72;1.60;;;;;;;15.28;92.78;100701.00;5003973;28;20068;-70
2022/05/27 01:43:14;;;;;;;2.90;1.80;;;;;;;15.28;92.32;100703.69;5012832;28;20057;-70
2022/05/27 01:46:04;;;;;;;3.40;1.88;;;;;;;15.28;92.78;100709.03;5011399;28;20113;-70
2022/05/27 01:48:44;;;;;;;3.25;1.92;;;;;;;15.24;94.10;100707.41;5011155;28;20097;-70
2022/05/27 01:51:18;;;;;;;4.13;1.75;;;;;;;15.24;93.74;100702.03;5010103;28;20034;-70
2022/05/27 01:54:05;;;;;;;4.30;1.92;;;;;;;15.23;93.16;100697.63;5009769;28;20575;-70
2022/05/27 01:56:34;;;;;;;4.38;1.90;;;;;;;15.25;93.66;100685.06;5011145;28;20060;-70
2022/05/27 01:59:09;;;;;;;3.45;1.80;;;;;;;15.20;92.82;100684.38;5011327;28;20061;-70
2022/05/27 02:01:44;;;;;;;2.78;1.80;;;;;;;15.28;92.84;100692.97;5007580;28;20030;-70
2022/05/27 02:04:36;;;;;;;4.50;1.88;;;;;;;15.33;92.08;100700.81;5011380;28;20034;-70
2022/05/27 02:07:07;;;;;;;2.55;1.60;;;;;;;15.29;92.69;100696.50;5001452;28;20057;-70
2022/05/27 02:09:40;;;;;;;3.55;2.10;;;;;;;15.34;93.17;100697.19;4995021;28;20084;-70
2022/05/27 02:12:13;;;;;;;3.57;1.70;;;;;;;15.38;93.26;100693.44;5010770;28;20022;-70
2022/05/27 02:14:49;;;;;;;2.38;1.60;;;;;;;15.39;92.73;100695.22;5012534;28;20022;-70
2022/05/27 02:17:23;;;;;;;3.45;2.25;;;;;;;15.36;93.26;100680.09;4993077;28;20490;-70
2022/05/27 02:20:28;;;;;;;2.42;1.52;;;;;;;15.48;92.90;100689.47;4994318;28;20026;-70
2022/05/27 02:23:00;;;;;;;6.82;2.05;;;;;;;15.55;91.80;100694.50;4974691;28;20065;-69
2022/05/27 02:25:32;;;;;;;2.92;1.77;;;;;;;15.59;91.48;100692.56;5012405;28;20408;-69
2022/05/27 02:28:04;;;;;;;4.13;1.67;;;;;;;15.53;91.75;100677.59;5012153;28;20037;-69
2022/05/27 02:30:33;;;;;;;3.15;1.70;;;;;;;15.64;91.41;100685.22;5011301;28;20065;-69
2022/05/27 02:35:51;;;;;;;2.80;1.90;;;;;;;15.72;91.42;100683.06;5012559;28;20107;-69
2022/05/27 02:38:17;;;;;;;2.90;2.00;;;;;;;15.77;89.99;100675.69;4994098;28;20442;-69
2022/05/27 02:41:12;;;;;;;4.72;1.85;;;;;;;15.88;90.38;100684.16;5012301;28;20038;-69
2022/05/27 02:43:57;;;;;;;6.43;2.10;;;;;;;15.88;90.18;100685.97;4996512;28;20413;-69
2022/05/27 02:46:37;;;;;;;5.55;1.75;;;;;;;15.93;89.95;100687.50;5011953;28;20021;-69
2022/05/27 02:49:40;;;;;;;5.25;1.67;;;;;;;15.98;89.46;100682.81;5010863;28;20456;-69
2022/05/27 02:52:15;;;;;;;2.58;1.40;;;;;;;16.01;89.51;100679.13;5012023;28;20036;-69
2022/05/27 02:54:56;;;;;;;5.55;1.85;;;;;;;16.03;88.91;100682.63;5011850;28;20136;-68
2022/05/27 02:57:30;;;;;;;3.00;1.45;;;;;;;16.04;89.67;100689.72;5011657;28;20034;-68
2022/05/27 02:59:57;;;;;;;5.30;1.92;;;;;;;16.05;88.87;100686.09;5011669;28;20037;-68
2022/05/27 03:02:22;;;;;;;2.85;1.50;;;;;;;16.02;88.58;100672.81;5009454;28;20026;-69
2022/05/27 03:04:52;;;;;;;12.23;1.92;;;;;;;16.13;89.24;100687.50;4988358;28;20022;-69
2022/05/27 03:07:33;;;;;;;4.47;1.55;;;;;;;16.18;88.20;100681.91;5008069;28;20026;-69
2022/05/27 03:10:14;;;;;;;3.90;1.92;;;;;;;16.20;88.50;100685.41;4992580;28;20028;-69
2022/05/27 03:13:17;;;;;;;11.18;2.20;;;;;;;16.21;87.67;100693.38;5010504;28;20057;-68
2022/05/27 03:15:51;;;;;;;3.53;1.95;;;;;;;16.25;88.24;100683.41;5008867;28;20491;-68
2022/05/27 03:18:28;;;;;;;3.67;1.73;;;;;;;16.31;88.77;100677.78;5008502;28;20037;-68
2022/05/27 03:21:08;;;;;;;4.90;1.80;;;;;;;16.36;89.33;100681.97;5009511;28;20022;-68
2022/05/27 03:23:40;;;;;;;6.18;2.10;;;;;;;16.43;90.08;100683.44;4989584;28;20141;-68
2022/05/27 03:26:42;;;;;;;4.10;1.67;;;;;;;16.52;89.42;100688.41;4990741;28;20081;-68
2022/05/27 03:29:18;;;;;;;4.53;2.10;;;;;;;16.62;89.51;100689.72;4991434;28;20478;-68
2022/05/27 03:32:07;;;;;;;3.90;1.95;;;;;;;16.68;89.23;100680.53;4991471;28;20129;-68
2022/05/27 03:34:58;;;;;;;5.43;1.80;;;;;;;16.77;88.65;100688.16;4983532;28;20038;-68
2022/05/27 03:37:34;;;;;;;8.10;1.60;;;;;;;16.79;88.14;100680.88;4991517;28;20062;-69
2022/05/27 03:40:15;;;;;;;3.97;1.55;;;;;;;16.86;88.04;100683.22;4991456;28;20037;-69
2022/05/27 03:42:41;;;;;;;5.45;1.75;;;;;;;16.89;87.77;100682.19;4991026;28;20114;-69
2022/05/27 03:45:09;;;;;;;4.25;2.42;;;;;;;16.92;87.08;100688.28;4991068;28;20030;-69
2022/05/27 03:47:35;;;;;;;4.40;1.58;;;;;;;16.99;87.22;100694.25;4991331;28;20030;-69
2022/05/27 03:50:01;;;;;;;7.47;2.38;;;;;;;16.92;86.34;100682.03;4991222;28;20030;-69
2022/05/27 03:52:35;;;;;;;15.45;2.55;;;;;;;17.03;85.68;100691.31;4991585;28;20587;-69
2022/05/27 03:55:01;;;;;;;4.72;1.80;;;;;;;17.04;85.94;100685.03;4991356;28;20482;-69
2022/05/27 03:57:26;;;;;;;5.45;2.47;;;;;;;17.06;86.47;100688.50;4991657;28;20019;-69
2022/05/27 03:59:52;;;;;;;4.85;1.77;;;;;;;17.05;85.49;100689.44;4990066;28;20022;-69
2022/05/27 04:02:17;;;;;;;6.40;2.15;;;;;;;17.05;85.72;100694.81;4990388;28;20057;-69
2022/05/27 04:04:43;;;;;;;9.00;1.85;;;;;;;17.06;86.07;100695.69;4990839;28;20072;-69
2022/05/27 04:07:08;;;;;;;5.63;1.90;;;;;;;17.00;86.22;100683.41;4990550;28;20465;-69
2022/05/27 04:09:36;;;;;;;6.88;1.92;;;;;;;17.10;86.09;100705.34;4989286;28;20027;-69
2022/05/27 04:12:02;;;;;;;3.67;1.60;;;;;;;17.09;85.17;100682.97;4990000;28;20022;-69
2022/05/27 04:14:28;;;;;;;2.28;1.42;;;;;;;17.13;85.60;100685.53;4991430;28;20050;-69
2022/05/27 04:17:27;;;;;;;3.72;1.83;;;;;;;17.19;84.89;100698.66;4989886;28;20018;-69
2022/05/27 04:19:39;;;;;;;3.97;1.63;;;;;;;17.23;85.51;100702.94;4990276;28;20097;-69
2022/05/27 04:22:04;;;;;;;5.03;2.33;;;;;;;17.17;85.33;100689.78;4990848;28;20101;-70
2022/05/27 04:24:30;;;;;;;5.03;1.80;;;;;;;17.15;84.22;100689.84;5002004;28;20057;-69
2022/05/27 04:26:55;;;;;;;3.65;1.88;;;;;;;17.16;85.18;100680.88;5010621;28;20021;-69
2022/05/27 04:29:24;;;;;;;3.75;1.98;;;;;;;17.23;84.74;100687.69;5010774;28;20041;-69
2022/05/27 04:31:49;;;;;;;6.93;2.00;;;;;;;17.32;84.51;100687.22;5014093;28;20033;-69
2022/05/27 04:34:14;;;;;;;4.03;1.70;;;;;;;17.38;84.06;100691.44;4996548;28;20465;-69
2022/05/27 04:36:40;;;;;;;3.55;1.67;;;;;;;17.41;84.18;100697.53;5014053;28;20045;-69
2022/05/27 04:39:05;;;;;;;3.05;1.67;;;;;;;17.42;84.23;100699.28;5013709;28;20095;-69
2022/05/27 04:41:31;;;;;;;5.70;1.77;;;;;;;17.44;83.46;100701.88;5014009;28;20029;-69
2022/05/27 04:43:56;;;;;;;6.78;2.00;;;;;;;17.50;83.40;100709.66;5014218;28;20025;-69
2022/05/27 04:46:22;;;;;;;6.93;2.00;;;;;;;17.52;83.28;100705.97;5014031;28;20084;-69
2022/05/27 04:48:49;;;;;;;3.05;1.77;;;;;;;17.50;83.09;100691.72;5014363;28;20376;-69
2022/05/27 04:51:14;;;;;;;5.35;1.70;;;;;;;17.48;83.64;100692.75;4996239;28;20121;-69
2022/05/27 04:53:40;;;;;;;2.63;1.58;;;;;;;17.57;83.58;100703.94;5014079;28;20041;-69
2022/05/27 04:56:08;;;;;;;6.05;1.95;;;;;;;17.63;83.65;100708.09;5013245;28;20097;-69
2022/05/27 04:58:34;;;;;;;5.30;1.67;;;;;;;17.58;84.12;100712.84;4996453;28;20041;-69
2022/05/27 05:00:59;;;;;;;5.22;1.90;;;;;;;17.50;82.79;100712.34;4995480;28;20026;-69
2022/05/27 05:03:25;;;;;;;3.78;1.80;;;;;;;17.55;83.41;100710.31;5013987;28;20105;-69
2022/05/27 05:05:50;;;;;;;4.38;1.90;;;;;;;17.54;83.19;100717.53;5014013;28;20059;-70
2022/05/27 05:08:33;;;;;;;2.50;1.30;;;;;;;17.60;83.29;100714.53;4996295;28;20022;-70
2022/05/27 05:11:01;;;;;;;3.65;1.70;;;;;;;17.52;83.34;100700.59;5013011;28;20061;-70
2022/05/27 05:13:28;;;;;;;4.65;2.35;;;;;;;17.68;82.39;100706.94;5012396;28;20112;-70
2022/05/27 05:15:53;;;;;;;4.22;1.80;;;;;;;17.64;81.72;100716.13;4992455;28;20034;-70
2022/05/27 05:18:19;;;;;;;4.50;1.90;;;;;;;17.65;81.71;100723.25;4994002;28;20049;-70
2022/05/27 05:20:44;;;;;;;4.07;2.17;;;;;;;17.72;81.83;100729.19;4993488;28;20466;-70
2022/05/27 05:23:09;;;;;;;5.45;1.83;;;;;;;17.76;81.40;100731.63;4976496;28;20057;-70
2022/05/27 05:25:35;;;;;;;4.72;2.05;;;;;;;17.78;81.17;100724.38;4993956;28;20037;-70
2022/05/27 05:28:01;;;;;;;3.38;2.08;;;;;;;17.75;81.12;100732.59;5004394;28;20026;-70
2022/05/27 05:30:28;;;;;;;2.58;1.63;;;;;;;17.73;81.44;100725.53;5012827;28;20099;-70
2022/05/27 05:32:54;;;;;;;3.70;1.75;;;;;;;17.82;80.99;100731.34;5012811;28;20029;-70
2022/05/27 05:35:19;;;;;;;6.25;2.25;;;;;;;17.78;80.97;100732.44;4995627;28;20037;-70
2022/05/27 05:37:47;;;;;;;4.35;1.90;;;;;;;17.80;81.33;100729.66;4995085;28;20026;-70
2022/05/27 05:40:14;;;;;;;5.40;2.05;;;;;;;17.73;81.85;100725.53;5013147;28;20520;-70
2022/05/27 05:42:40;;;;;;;4.53;1.70;;;;;;;17.65;81.77;100719.66;5012021;28;20060;-70
2022/05/27 05:45:07;;;;;;;3.83;1.98;;;;;;;17.70;82.23;100726.56;4995475;28;20120;-70
2022/05/27 05:47:35;;;;;;;4.53;2.13;;;;;;;17.68;82.29;100725.78;5013005;28;20029;-70
2022/05/27 05:50:01;;;;;;;4.40;1.88;;;;;;;17.71;82.09;100727.44;5012075;28;20033;-70
2022/05/27 05:52:27;;;;;;;4.97;2.00;;;;;;;17.64;82.41;100716.13;5012837;28;20037;-70
2022/05/27 05:54:52;;;;;;;6.45;2.42;;;;;;;17.59;82.45;100731.63;5013110;28;20482;-70
2022/05/27 05:57:17;;;;;;;4.13;2.00;;;;;;;17.58;83.35;100732.56;5012264;28;20125;-70
2022/05/27 05:59:43;;;;;;;4.07;2.03;;;;;;;17.51;83.41;100720.34;5012902;28;20477;-70
2022/05/27 06:02:09;;;;;;;3.97;2.00;;;;;;;17.56;83.51;100726.38;5012499;28;20026;-70
2022/05/27 06:04:34;;;;;;;5.57;2.00;;;;;;;17.57;83.24;100729.94;4994868;28;20116;-70
2022/05/27 06:07:00;;;;;;;5.03;2.40;;;;;;;17.55;82.80;100721.97;5012332;28;20389;-70
2022/05/27 06:09:26;;;;;;;6.05;2.22;;;;;;;17.57;82.66;100708.44;4994104;28;20539;-70
2022/05/27 06:11:55;;;;;;;4.32;2.08;;;;;;;17.63;83.01;100730.50;5011565;28;20036;-70
2022/05/27 06:14:21;;;;;;;4.57;1.85;;;;;;;17.67;83.38;100724.03;4994809;28;20084;-70
2022/05/27 06:16:47;;;;;;;3.25;1.77;;;;;;;17.81;83.50;100728.69;5012396;28;20021;-70
2022/05/27 06:19:12;;;;;;;3.80;1.90;;;;;;;17.85;83.67;100739.25;4993589;28;20025;-70
2022/05/27 06:21:41;;;;;;;4.28;1.80;;;;;;;17.87;83.62;100731.97;5010836;28;20038;-70
2022/05/27 06:24:07;;;;;;;11.05;2.28;;;;;;;17.84;82.92;100713.28;4993106;28;20111;-70
2022/05/27 06:26:32;;;;;;;2.65;1.60;;;;;;;17.87;82.37;100714.94;5010065;28;20030;-70
2022/05/27 06:34:26;;;;;;;2.45;1.40;;;;;;;17.94;80.06;100737.94;5010399;28;20416;-70
2022/05/27 06:37:05;;;;;;;3.75;1.35;;;;;;;17.84;79.13;100732.13;5010455;28;20108;-71
2022/05/27 06:39:34;;;;;;;6.75;2.35;;;;;;;17.89;78.03;100743.53;5011523;28;20076;-70
2022/05/27 06:41:59;;;;;;;4.72;1.60;;;;;;;17.93;78.00;100737.03;5011699;28;20030;-70
2022/05/27 06:44:25;;;;;;;2.60;1.58;;;;;;;17.93;77.26;100737.03;5010553;28;20104;-70
2022/05/27 06:46:51;;;;;;;3.33;1.50;;;;;;;17.89;77.32;100748.91;5010422;28;20033;-70
2022/05/27 06:49:20;;;;;;;6.20;1.33;;;;;;;17.92;77.68;100742.50;5011332;28;20029;-70
2022/05/27 06:51:46;;;;;;;4.50;1.60;;;;;;;18.00;78.28;100754.63;5010533;28;20026;-70
2022/05/27 06:54:13;;;;;;;2.75;1.40;;;;;;;17.99;77.18;100758.25;5010522;28;20026;-70
2022/05/27 06:56:40;;;;;;;3.35;1.40;;;;;;;17.96;77.28;100763.81;4992720;28;20124;-70
2022/05/27 06:59:07;;;;;;;7.18;1.50;;;;;;;17.96;78.14;100758.41;5011629;28;20025;-70
2022/05/27 07:01:33;;;;;;;3.15;1.60;;;;;;;17.89;77.26;100759.66;5011235;28;20408;-70
2022/05/27 07:03:59;;;;;;;2.95;1.60;;;;;;;17.97;77.76;100757.44;4993703;28;20075;-70
2022/05/27 07:06:32;;;;;;;5.47;1.50;;;;;;;17.98;78.09;100758.34;5010691;28;20053;-69
2022/05/27 07:09:00;;;;;;;3.17;1.50;;;;;;;18.03;78.28;100758.97;5011679;28;20366;-69
2022/05/27 07:11:25;;;;;;;3.60;1.85;;;;;;;18.02;78.16;100758.09;5010840;28;20420;-69
2022/05/27 07:13:51;;;;;;;2.42;1.60;;;;;;;18.07;78.35;100764.13;5011627;28;20018;-69
2022/05/27 07:16:16;;;;;;;3.28;1.48;;;;;;;18.15;77.43;100764.59;5011626;28;20033;-69
2022/05/27 07:18:41;;;;;;;4.05;1.70;;;;;;;18.14;77.45;100751.19;5010771;28;20374;-69
2022/05/27 07:21:07;;;;;;;4.45;1.80;;;;;;;18.16;77.82;100755.56;5011111;28;20044;-69
2022/05/27 07:23:33;;;;;;;6.47;3.47;;;;;;;18.13;77.44;100747.66;5010785;28;20081;-69
2022/05/27 07:25:59;;;;;;;3.97;1.50;;;;;;;18.22;76.81;100747.16;5011023;28;20033;-69
2022/05/27 07:28:29;;;;;;;3.72;2.05;;;;;;;18.20;76.10;100743.69;5010979;28;20033;-69
2022/05/27 07:30:55;;;;;;;3.95;1.52;;;;;;;18.33;75.70;100749.31;4993887;28;20084;-70
2022/05/27 07:33:20;;;;;;;2.03;1.20;;;;;;;18.46;76.29;100738.78;4993534;28;20520;-69
2022/05/27 07:35:47;;;;;;;5.53;1.42;;;;;;;18.55;76.00;100735.59;5010650;28;20117;-69
2022/05/27 07:38:13;;;;;;;3.38;1.50;;;;;;;18.61;75.62;100732.56;5009869;28;20401;-69
2022/05/27 07:40:39;;;;;;;3.00;1.83;;;;;;;18.60;75.00;100737.09;5010266;28;20022;-69
2022/05/27 07:43:08;;;;;;;3.20;1.40;;;;;;;18.59;74.93;100742.56;5010855;28;20037;-69
2022/05/27 07:45:36;;;;;;;2.80;1.75;;;;;;;18.54;75.02;100734.72;5010728;28;20084;-69
2022/05/27 07:48:02;;;;;;;2.63;1.60;;;;;;;18.49;73.81;100744.00;5011377;28;20033;-68
2022/05/27 07:50:27;;;;;;;4.95;2.08;;;;;;;18.54;75.23;100740.13;5011152;28;20034;-68
2022/05/27 07:52:53;;;;;;;2.28;1.50;;;;;;;18.56;75.36;100737.34;4993190;28;20026;-68
2022/05/27 07:55:19;;;;;;;3.65;1.60;;;;;;;18.71;75.73;100729.31;4993007;28;20026;-68
2022/05/27 07:57:46;;;;;;;3.22;1.98;;;;;;;18.88;74.06;100744.56;5009275;28;20105;-68
2022/05/27 08:00:19;;;;;;;3.42;1.88;;;;;;;19.19;75.21;100736.50;5007418;28;20217;-68
2022/05/27 08:02:44;;;;;;;3.67;2.70;;;;;;;19.47;73.46;100742.09;5009147;28;20034;-68
2022/05/27 08:05:12;;;;;;;3.03;1.70;;;;;;;19.60;70.65;100722.38;5011281;28;20088;-68
2022/05/27 08:07:38;;;;;;;2.88;1.52;;;;;;;19.81;69.55;100736.47;5013118;28;20438;-67
2022/05/27 08:10:04;;;;;;;10.07;2.72;;;;;;;20.12;70.00;100730.09;5000006;28;20506;-66
2022/05/27 08:12:30;;;;;;;11.13;4.60;;;;;;;20.28;68.62;100723.72;5014706;28;20026;-68
2022/05/27 08:14:56;;;;;;;4.25;3.15;;;;;;;20.49;67.53;100735.91;5013629;28;20099;-68
2022/05/27 08:17:21;;;;;;;6.60;4.00;;;;;;;20.66;68.88;100737.56;5013008;28;20038;-68
2022/05/27 08:19:47;;;;;;;6.25;2.90;;;;;;;20.78;65.96;100732.28;4977000;28;20032;-68
2022/05/27 08:22:12;;;;;;;3.90;1.90;;;;;;;20.79;67.38;100733.13;4999399;28;20068;-68
2022/05/27 08:24:38;;;;;;;3.22;1.58;;;;;;;20.85;65.45;100744.44;5014391;28;20081;-68
2022/05/27 08:27:03;;;;;;;3.45;1.27;;;;;;;20.94;64.19;100743.84;5013987;28;20032;-68
2022/05/27 08:29:29;;;;;;;4.95;1.45;;;;;;;21.13;63.22;100748.13;5014550;28;20018;-68
2022/05/27 08:31:54;;;;;;;2.53;1.38;;;;;;;21.18;60.87;100745.97;5013580;28;20033;-69
2022/05/27 08:39:48;;;;;;;3.63;1.27;;;;;;;21.66;60.23;100753.63;5014199;28;20107;-69
2022/05/27 08:42:35;;;;;;;2.30;1.30;;;;;;;21.63;60.21;100753.81;5013650;28;20041;-69
2022/05/27 08:45:32;;;;;;;2.13;1.20;;;;;;;21.59;59.33;100745.03;5013841;28;20018;-69
2022/05/27 08:48:04;;;;;;;1.92;0.98;;;;;;;21.33;57.70;100751.28;5013833;28;20037;-69
2022/05/27 08:50:38;;;;;;;4.10;1.10;;;;;;;21.13;58.70;100737.28;5012224;28;20030;-69
2022/05/27 08:53:09;;;;;;;2.58;0.90;;;;;;;21.19;58.26;100754.00;5012510;28;20040;-69
2022/05/27 09:01:18;;;;;;;2.28;0.98;;;;;;;24.12;53.31;100740.28;5011071;28;20040;-69
2022/05/27 09:03:49;;;;;;;2.65;0.90;;;;;;;24.44;50.69;100743.22;5011966;28;20532;-70
2022/05/27 09:06:17;;;;;;;1.42;0.82;;;;;;;24.27;48.63;100738.22;5011990;28;20037;-70
2022/05/27 09:08:43;;;;;;;3.45;0.98;;;;;;;23.82;49.99;100730.88;5011402;28;20484;-70
2022/05/27 09:11:10;;;;;;;1.27;0.80;;;;;;;24.03;50.00;100743.72;5012072;28;20025;-70
2022/05/27 09:13:58;;;;;;;2.15;1.00;;;;;;;24.13;49.30;100736.59;5010496;28;20049;-70
2022/05/27 09:16:26;;;;;;;1.50;0.90;;;;;;;24.04;48.47;100747.28;5012656;28;20030;-71
2022/05/27 09:19:00;;;;;;;2.10;0.98;;;;;;;23.34;48.90;100741.69;5012960;28;20061;-71
2022/05/27 09:22:04;;;;;;;2.92;1.10;;;;;;;23.30;50.08;100753.75;5013709;28;20392;-71
2022/05/27 09:24:33;;;;;;;2.53;1.02;;;;;;;22.89;50.91;100750.44;4972295;28;20043;-70
2022/05/27 09:27:23;;;;;;;2.63;1.00;;;;;;;22.99;51.92;100745.19;4989193;28;20128;-70
2022/05/27 09:29:48;;;;;;;2.42;1.05;;;;;;;23.29;52.43;100749.28;4991888;28;20042;-70
2022/05/27 09:32:50;;;;;;;1.55;0.70;;;;;;;23.46;49.89;100744.50;4991439;28;20061;-70
2022/05/27 09:35:20;;;;;;;1.02;0.80;;;;;;;23.51;50.63;100736.88;4950073;28;20053;-70
2022/05/27 09:37:51;;;;;;;1.50;0.90;;;;;;;23.62;50.19;100747.78;4991663;28;20501;-69
2022/05/27 09:40:23;;;;;;;2.10;0.70;;;;;;;24.33;49.32;100745.94;4992682;28;20060;-69
2022/05/27 09:43:02;;;;;;;1.70;1.10;;;;;;;24.79;45.89;100737.75;4993157;28;20061;-69
2022/05/27 09:45:29;;;;;;;2.00;1.13;;;;;;;25.11;44.85;100742.34;4993442;28;20041;-69
2022/05/27 09:47:59;;;;;;;2.72;1.02;;;;;;;25.37;43.50;100726.66;4993504;28;20567;-69
2022/05/27 09:50:48;;;;;;;2.85;1.08;;;;;;;25.79;44.69;100732.09;4990894;28;20081;-69
2022/05/27 09:53:22;;;;;;;1.98;0.95;;;;;;;25.74;43.07;100722.56;4985950;28;20132;-69
2022/05/27 09:56:12;;;;;;;2.05;0.90;;;;;;;25.13;43.74;100726.75;4991725;28;20030;-69
2022/05/27 09:58:40;;;;;;;3.53;1.27;;;;;;;24.41;45.29;100724.44;4981998;28;20049;-68
2022/05/27 10:01:19;;;;;;;1.90;1.30;;;;;;;24.02;47.41;100736.53;4990619;28;20085;-69
2022/05/27 10:03:46;;;;;;;1.42;0.90;;;;;;;23.41;48.92;100723.97;4990928;28;20386;-69
2022/05/27 10:06:17;;;;;;;2.50;1.00;;;;;;;23.12;49.94;100725.22;4990638;28;20037;-69
2022/05/27 10:08:55;;;;;;;1.98;1.15;;;;;;;23.02;50.61;100729.56;4991591;28;20366;-69
2022/05/27 10:11:28;;;;;;;2.40;1.10;;;;;;;22.78;51.72;100725.91;4990855;28;20030;-69
2022/05/27 10:14:27;;;;;;;3.42;1.10;;;;;;;22.62;51.63;100724.41;4991089;28;20585;-69
2022/05/27 10:17:10;;;;;;;3.65;1.20;;;;;;;22.46;51.89;100719.16;4991119;28;20088;-69
2022/05/27 10:19:46;;;;;;;2.30;1.00;;;;;;;22.63;51.74;100718.00;4992832;28;20049;-69
2022/05/27 10:22:20;;;;;;;2.63;1.40;;;;;;;22.87;53.20;100725.25;4992467;28;20560;-69
2022/05/27 10:24:59;;;;;;;2.53;1.38;;;;;;;23.10;53.43;100713.59;5006169;28;20536;-69
2022/05/27 10:27:33;;;;;;;2.30;1.00;;;;;;;23.19;52.52;100728.34;5010927;28;20470;-69
2022/05/27 10:30:02;;;;;;;2.47;1.20;;;;;;;23.25;51.15;100726.03;5011356;28;20424;-69
2022/05/27 10:32:31;;;;;;;2.42;1.67;;;;;;;23.32;48.71;100730.09;5012050;28;20044;-68
2022/05/27 10:34:59;;;;;;;1.63;1.08;;;;;;;23.08;50.99;100729.13;5011671;28;20021;-69
2022/05/27 10:37:44;;;;;;;3.58;1.25;;;;;;;23.02;51.01;100732.28;5010426;28;20029;-69
2022/05/27 10:40:55;;;;;;;1.85;1.38;;;;;;;22.73;52.48;100727.22;4992172;28;20397;-69
2022/05/27 10:43:26;;;;;;;2.63;1.38;;;;;;;22.66;53.26;100728.63;4985589;28;20034;-69
2022/05/27 10:45:57;;;;;;;1.55;1.20;;;;;;;22.48;54.13;100719.91;5011020;28;20091;-69
2022/05/27 10:48:36;;;;;;;1.40;0.98;;;;;;;22.33;55.10;100729.13;5011328;28;20025;-68
2022/05/27 10:51:38;;;;;;;3.10;1.40;;;;;;;22.16;55.03;100716.72;5010852;28;20496;-68
2022/05/27 10:54:21;;;;;;;1.83;1.15;;;;;;;22.10;55.54;100724.41;5011175;28;20061;-68
2022/05/27 11:03:15;;;;;;;2.72;1.40;;;;;;;22.39;54.23;100720.53;5009737;28;20044;-68
2022/05/27 11:06:07;;;;;;;2.28;1.30;;;;;;;22.65;54.00;100714.19;5001573;28;20493;-68
2022/05/27 11:08:36;;;;;;;1.25;1.00;;;;;;;22.86;51.83;100718.09;5006255;28;20034;-69
2022/05/27 11:11:13;;;;;;;1.88;0.98;;;;;;;23.12;52.39;100719.78;5009427;28;20439;-68
2022/05/27 11:16:46;;;;;;;1.23;0.88;;;;;;;23.39;51.18;100712.34;5009416;28;20044;-69
2022/05/27 11:19:34;;;;;;;1.63;1.07;;;;;;;23.78;51.78;100697.63;4990913;28;20053;-69
2022/05/27 11:22:27;;;;;;;2.83;1.23;;;;;;;24.20;49.04;100705.19;5009957;28;20315;-68
2022/05/27 11:25:19;;;;;;;3.22;1.83;;;;;;;24.40;49.88;100700.91;5008680;28;20053;-68
2022/05/27 11:27:44;;;;;;;3.97;1.52;;;;;;;24.35;48.23;100708.56;5008979;28;20105;-68
2022/05/27 11:30:26;;;;;;;2.17;1.20;;;;;;;24.25;49.91;100696.72;5008637;28;20049;-68
2022/05/27 11:33:03;;;;;;;1.80;0.98;;;;;;;23.70;50.33;100700.06;5009828;28;20485;-69
2022/05/27 11:35:48;;;;;;;3.88;1.27;;;;;;;23.39;49.82;100698.75;5009228;28;20501;-69
2022/05/27 11:39:01;;;;;;;2.53;1.20;;;;;;;23.03;52.29;100698.72;4991453;28;20033;-69
2022/05/27 11:41:32;;;;;;;3.95;1.10;;;;;;;22.74;51.65;100697.25;5008937;28;20061;-69
2022/05/27 11:44:16;;;;;;;1.92;1.02;;;;;;;22.43;52.35;100696.81;5008268;28;20553;-69
2022/05/27 11:46:55;;;;;;;1.35;1.05;;;;;;;22.49;52.58;100697.22;5009920;28;20029;-69
2022/05/27 11:49:20;;;;;;;2.03;1.25;;;;;;;22.49;52.68;100685.53;5008823;28;20028;-69
2022/05/27 11:52:08;;;;;;;2.45;1.33;;;;;;;22.53;53.65;100685.25;5010361;28;20401;-69
2022/05/27 11:55:04;;;;;;;2.20;1.20;;;;;;;22.34;54.26;100679.34;4992457;28;20079;-69
2022/05/27 11:57:29;;;;;;;1.13;0.93;;;;;;;22.43;54.46;100686.84;5009802;28;20358;-69
2022/05/27 12:00:10;;;;;;;1.52;0.95;;;;;;;22.62;54.58;100681.84;5009623;28;20037;-69
2022/05/27 12:03:01;;;;;;;3.88;1.40;;;;;;;22.89;53.52;100673.56;4990765;28;20470;-69
2022/05/27 12:05:39;;;;;;;2.20;1.20;;;;;;;23.23;53.87;100675.53;4985284;28;20026;-69
2022/05/27 12:08:25;;;;;;;3.30;1.50;;;;;;;23.44;51.28;100674.00;4990036;28;20022;-69
2022/05/27 12:11:01;;;;;;;4.50;1.35;;;;;;;23.59;50.64;100674.69;4996492;28;20036;-69
2022/05/27 12:13:34;;;;;;;4.93;1.50;;;;;;;23.69;50.93;100660.25;4992438;28;20030;-69
2022/05/27 12:16:12;;;;;;;5.03;1.30;;;;;;;23.95;51.08;100669.16;4997646;28;20057;-69
2022/05/27 12:18:45;;;;;;;3.78;1.40;;;;;;;24.00;50.45;100673.25;4991387;28;20030;-69